createdAt,value
2023-02-08T00:02:38.495Z,10.27
2023-02-08T00:05:40.310Z,7.93
2023-02-08T00:08:42.138Z,9.20
2023-02-08T00:11:43.813Z,12.00
2023-02-08T00:14:45.536Z,11.80
2023-02-08T00:17:47.231Z,10.90
2023-02-08T00:20:49.140Z,12.73
2023-02-08T00:23:50.922Z,11.77
2023-02-08T00:26:53.936Z,10.23
2023-02-08T00:29:55.677Z,14.17
2023-02-08T00:32:57.437Z,11.27
2023-02-08T00:36:02.146Z,9.63
2023-02-08T00:39:04.178Z,10.37
2023-02-08T00:42:06.025Z,8.10
2023-02-08T00:45:08.163Z,9.63
2023-02-08T00:48:09.879Z,10.63
2023-02-08T00:51:15.246Z,7.97
2023-02-08T00:54:18.933Z,11.90
2023-02-08T00:57:20.816Z,9.77
2023-02-08T01:00:23.167Z,12.10
2023-02-08T01:03:25.467Z,10.47
2023-02-08T01:06:27.301Z,10.27
2023-02-08T01:09:29.021Z,10.40
2023-02-08T01:12:30.934Z,8.93
2023-02-08T01:15:34.308Z,10.57
2023-02-08T01:18:36.770Z,10.53
2023-02-08T01:21:40.835Z,9.87
2023-02-08T01:24:42.576Z,8.30
2023-02-08T01:27:44.318Z,9.13
2023-02-08T01:30:46.090Z,8.63
2023-02-08T01:33:48.109Z,14.00
2023-02-08T01:36:50.011Z,11.07
2023-02-08T01:39:51.800Z,10.20
2023-02-08T01:42:56.025Z,13.67
2023-02-08T01:45:58.362Z,8.87
2023-02-08T01:49:15.241Z,6.77
2023-02-08T01:52:18.160Z,14.10
2023-02-08T01:55:31.811Z,10.43
2023-02-08T01:58:37.256Z,9.43
2023-02-08T02:01:39.821Z,9.93
2023-02-08T02:04:42.057Z,8.97
2023-02-08T02:07:44.189Z,8.10
2023-02-08T02:10:49.187Z,8.80
2023-02-08T02:13:51.263Z,6.77
2023-02-08T02:16:53.281Z,8.30
2023-02-08T02:20:00.822Z,13.90
2023-02-08T02:23:25.330Z,6.50
2023-02-08T02:26:54.774Z,11.10
2023-02-08T02:30:17.630Z,16.30
2023-02-08T02:33:29.651Z,9.33
2023-02-08T02:36:53.141Z,8.67
2023-02-08T02:40:07.038Z,8.30
2023-02-08T02:43:41.382Z,12.50
2023-02-08T02:46:48.585Z,11.50
2023-02-08T02:50:09.435Z,10.13
2023-02-08T02:53:29.171Z,10.37
2023-02-08T02:56:52.346Z,8.77
2023-02-08T02:59:54.272Z,11.20
2023-02-08T03:02:56.115Z,9.27
2023-02-08T03:06:03.336Z,11.20
2023-02-08T03:09:23.775Z,11.53
2023-02-08T03:12:37.865Z,9.67
2023-02-08T03:16:06.914Z,14.57
2023-02-08T03:19:08.613Z,12.87
2023-02-08T03:22:47.367Z,10.07
2023-02-08T03:26:16.011Z,11.33
2023-02-08T03:29:53.303Z,8.10
2023-02-08T03:33:12.701Z,9.20
2023-02-08T03:36:43.246Z,11.20
2023-02-08T03:39:49.155Z,11.97
2023-02-08T03:42:54.108Z,10.57
2023-02-08T03:46:05.377Z,15.43
2023-02-08T03:49:15.685Z,12.93
2023-02-08T03:52:17.778Z,18.50
2023-02-08T03:55:26.423Z,11.17
2023-02-08T03:58:52.270Z,11.27
2023-02-08T04:02:02.955Z,13.63
2023-02-08T04:05:05.938Z,14.53
2023-02-08T04:08:08.014Z,17.13
2023-02-08T04:11:09.861Z,15.17
2023-02-08T04:14:11.576Z,14.27
2023-02-08T04:17:13.300Z,17.83
2023-02-08T04:20:15.033Z,12.67
2023-02-08T04:23:16.728Z,19.33
2023-02-08T04:26:18.445Z,19.60
2023-02-08T04:29:20.172Z,17.23
2023-02-08T04:32:21.881Z,17.00
2023-02-08T04:35:23.589Z,14.80
2023-02-08T04:38:25.351Z,15.53
2023-02-08T04:41:27.062Z,16.00
2023-02-08T04:44:28.869Z,13.97
2023-02-08T04:47:30.569Z,17.97
2023-02-08T04:50:32.298Z,16.50
2023-02-08T04:53:34.841Z,14.23
2023-02-08T04:56:36.799Z,18.40
2023-02-08T04:59:38.526Z,23.43
2023-02-08T05:02:40.260Z,25.27
2023-02-08T05:05:42.105Z,17.23
2023-02-08T05:08:43.919Z,22.03
2023-02-08T05:11:45.754Z,19.60
2023-02-08T05:14:47.469Z,23.00
2023-02-08T05:17:49.175Z,18.80
2023-02-08T05:21:00.951Z,22.07
2023-02-08T05:24:02.911Z,16.83
2023-02-08T05:27:04.623Z,17.80
2023-02-08T05:30:06.934Z,17.20
2023-02-08T05:33:08.673Z,14.47
2023-02-08T05:36:10.475Z,16.17
2023-02-08T05:39:12.241Z,12.60
2023-02-08T05:42:13.995Z,13.17
2023-02-08T05:45:15.882Z,14.30
2023-02-08T05:48:18.104Z,18.83
2023-02-08T05:51:20.823Z,14.70
2023-02-08T05:54:22.617Z,16.10
2023-02-08T05:57:24.326Z,15.20
2023-02-08T06:00:26.395Z,13.53
2023-02-08T06:03:28.211Z,15.87
2023-02-08T06:06:30.010Z,13.93
2023-02-08T06:09:31.949Z,18.37
2023-02-08T06:12:33.722Z,17.27
2023-02-08T06:15:35.429Z,19.00
2023-02-08T06:18:37.219Z,12.77
2023-02-08T06:21:39.049Z,16.83
2023-02-08T06:24:40.764Z,15.43
2023-02-08T06:27:42.470Z,16.30
2023-02-08T06:30:44.938Z,12.10
2023-02-08T06:33:46.656Z,19.10
2023-02-08T06:36:48.437Z,18.77
2023-02-08T06:39:50.187Z,16.87
2023-02-08T06:42:51.971Z,13.70
2023-02-08T06:45:53.730Z,14.37
2023-02-08T06:48:57.969Z,18.83
2023-02-08T06:51:59.704Z,14.70
2023-02-08T06:55:01.451Z,13.33
2023-02-08T06:58:03.166Z,15.60
2023-02-08T07:01:05.050Z,13.47
2023-02-08T07:04:06.929Z,14.07
2023-02-08T07:07:08.861Z,16.03
2023-02-08T07:10:10.637Z,14.47
2023-02-08T07:13:12.336Z,11.67
2023-02-08T07:16:14.726Z,13.60
2023-02-08T07:19:16.535Z,17.23
2023-02-08T07:22:18.335Z,15.80
2023-02-08T07:25:20.129Z,15.83
2023-02-08T07:28:21.937Z,14.30
2023-02-08T07:31:23.792Z,15.47
2023-02-08T07:34:25.934Z,16.63
2023-02-08T07:37:27.762Z,12.47
2023-02-08T07:40:29.491Z,29.87
2023-02-08T07:43:31.315Z,18.43
2023-02-08T07:46:35.234Z,22.47
2023-02-08T07:49:36.952Z,18.87
2023-02-08T07:52:38.716Z,20.93
2023-02-08T07:55:40.428Z,17.33
2023-02-08T07:58:42.173Z,18.00
2023-02-08T08:01:44.044Z,17.83
2023-02-08T08:04:45.777Z,16.47
2023-02-08T08:07:47.892Z,14.37
2023-02-08T08:10:49.739Z,17.87
2023-02-08T08:13:51.961Z,14.93
2023-02-08T08:16:53.722Z,16.50
2023-02-08T08:19:55.510Z,17.97
2023-02-08T08:22:57.301Z,18.47
2023-02-08T08:26:10.609Z,18.93
2023-02-08T08:29:13.262Z,18.30
2023-02-08T08:32:14.992Z,20.93
2023-02-08T08:35:16.747Z,22.63
2023-02-08T08:38:18.439Z,18.10
2023-02-08T08:41:22.332Z,20.47
2023-02-08T08:44:24.256Z,19.30
2023-02-08T08:47:25.998Z,24.93
2023-02-08T08:50:27.740Z,21.67
2023-02-08T08:53:29.496Z,20.83
2023-02-08T08:56:32.166Z,19.40
2023-02-08T08:59:34.140Z,19.00
2023-02-08T09:02:35.896Z,20.97
2023-02-08T09:05:37.911Z,23.13
2023-02-08T09:08:39.906Z,19.40
2023-02-08T09:11:41.695Z,21.07
2023-02-08T09:14:44.804Z,18.83
2023-02-08T09:17:46.464Z,19.67
2023-02-08T09:20:48.353Z,17.40
2023-02-08T09:23:50.126Z,18.97
2023-02-08T09:26:52.035Z,17.97
2023-02-08T09:29:53.748Z,14.90
2023-02-08T09:32:55.457Z,17.27
2023-02-08T09:35:57.174Z,17.37
2023-02-08T09:39:02.522Z,18.80
2023-02-08T09:42:21.529Z,26.30
2023-02-08T09:45:41.349Z,13.80
2023-02-08T09:48:52.185Z,18.17
2023-02-08T09:51:58.543Z,14.43
2023-02-08T09:55:08.822Z,16.97
2023-02-08T09:58:19.964Z,16.60
2023-02-08T10:01:28.689Z,18.60
2023-02-08T10:05:10.201Z,19.80
2023-02-08T10:08:12.298Z,19.40
2023-02-08T10:11:35.130Z,16.13
2023-02-08T10:14:44.313Z,18.93
2023-02-08T10:18:24.776Z,16.00
2023-02-08T10:21:45.340Z,16.07
2023-02-08T10:24:55.313Z,17.47
2023-02-08T10:28:21.242Z,17.40
2023-02-08T10:31:40.291Z,13.53
2023-02-08T10:35:02.176Z,15.03
2023-02-08T10:38:44.069Z,16.53
2023-02-08T10:41:47.865Z,12.77
2023-02-08T10:45:27.301Z,17.00
2023-02-08T10:48:38.802Z,15.23
2023-02-08T10:51:40.833Z,13.77
2023-02-08T10:54:42.558Z,14.27
2023-02-08T10:57:49.750Z,16.77
2023-02-08T11:00:52.033Z,12.40
2023-02-08T11:04:12.007Z,13.30
2023-02-08T11:07:22.496Z,15.53
2023-02-08T11:10:25.407Z,12.17
2023-02-08T11:13:39.928Z,10.47
2023-02-08T11:16:43.263Z,14.27
2023-02-08T11:19:46.326Z,10.43
2023-02-08T11:22:48.189Z,10.83
2023-02-08T11:25:50.949Z,11.50
2023-02-08T11:29:17.065Z,11.57
2023-02-08T11:32:20.535Z,11.47
2023-02-08T11:35:25.509Z,8.53
2023-02-08T11:38:28.237Z,8.77
2023-02-08T11:41:30.623Z,8.33
2023-02-08T11:44:35.710Z,7.57
2023-02-08T11:47:38.053Z,8.53
2023-02-08T11:50:39.909Z,7.40
2023-02-08T11:53:47.424Z,6.13
2023-02-08T11:57:02.577Z,9.77
2023-02-08T12:00:20.619Z,5.57
2023-02-08T12:03:31.429Z,6.77
2023-02-08T12:06:51.142Z,5.47
2023-02-08T12:10:03.389Z,6.97
2023-02-08T12:13:32.275Z,6.37
2023-02-08T12:16:52.433Z,4.80
2023-02-08T12:20:13.062Z,5.67
2023-02-08T12:23:29.866Z,7.13
2023-02-08T12:27:04.371Z,5.27
2023-02-08T12:30:33.907Z,4.83
2023-02-08T12:34:01.182Z,5.90
2023-02-08T12:37:21.551Z,6.07
2023-02-08T12:40:52.483Z,5.37
2023-02-08T12:44:10.412Z,5.10
2023-02-08T12:47:33.216Z,8.70
2023-02-08T12:51:00.124Z,5.97
2023-02-08T12:54:15.305Z,5.93
2023-02-08T12:57:19.514Z,5.47
2023-02-08T13:00:34.701Z,5.63
2023-02-08T13:03:50.908Z,5.50
2023-02-08T13:07:30.207Z,11.37
2023-02-08T13:10:39.397Z,8.07
2023-02-08T13:13:43.249Z,11.13
2023-02-08T13:16:49.029Z,7.47
2023-02-08T13:20:11.550Z,7.73
2023-02-08T13:23:25.938Z,8.73
2023-02-08T13:26:34.297Z,8.40
2023-02-08T13:29:37.628Z,9.07
2023-02-08T13:32:44.261Z,7.10
2023-02-08T13:35:51.429Z,5.40
2023-02-08T13:38:54.026Z,11.33
2023-02-08T13:41:57.201Z,6.90
2023-02-08T13:45:00.722Z,6.87
2023-02-08T13:48:07.610Z,7.53
2023-02-08T13:51:50.350Z,6.07
2023-02-08T13:55:38.040Z,6.50
2023-02-08T13:59:01.064Z,6.37
2023-02-08T14:02:12.153Z,5.40
2023-02-08T14:05:44.166Z,9.33
2023-02-08T14:08:57.206Z,10.03
2023-02-08T14:12:13.936Z,5.40
2023-02-08T14:15:15.618Z,5.97
2023-02-08T14:18:27.637Z,4.47
2023-02-08T14:21:43.486Z,5.83
2023-02-08T14:25:00.355Z,5.07
2023-02-08T14:28:03.002Z,5.13
2023-02-08T14:31:08.503Z,7.13
2023-02-08T14:34:35.793Z,10.40
2023-02-08T14:37:37.767Z,5.87
2023-02-08T14:40:59.003Z,7.87
2023-02-08T14:44:38.763Z,4.87
2023-02-08T14:47:42.534Z,5.63
2023-02-08T14:51:12.020Z,5.47
2023-02-08T14:54:43.156Z,5.00
2023-02-08T14:57:44.986Z,4.10
2023-02-08T15:00:50.788Z,6.40
2023-02-08T15:03:56.398Z,4.13
2023-02-08T15:07:01.704Z,4.77
2023-02-08T15:10:12.604Z,11.07
2023-02-08T15:13:24.281Z,5.20
2023-02-08T15:16:33.988Z,10.27
2023-02-08T15:19:38.580Z,6.87
2023-02-08T15:22:40.325Z,6.23
2023-02-08T15:25:43.141Z,5.13
2023-02-08T15:28:45.073Z,5.03
2023-02-08T15:31:47.488Z,10.03
2023-02-08T15:34:57.029Z,9.50
2023-02-08T15:37:59.066Z,5.20
2023-02-08T15:41:07.368Z,5.03
2023-02-08T15:44:30.166Z,6.30
2023-02-08T15:47:37.783Z,5.53
2023-02-08T15:50:39.576Z,5.70
2023-02-08T15:53:44.002Z,4.93
2023-02-08T15:57:09.526Z,6.30
2023-02-08T16:00:16.361Z,4.73
2023-02-08T16:03:23.458Z,4.57
2023-02-08T16:06:38.791Z,3.93
2023-02-08T16:09:40.619Z,7.03
2023-02-08T16:12:44.641Z,5.80
2023-02-08T16:15:51.883Z,7.77
2023-02-08T16:19:01.176Z,5.33
2023-02-08T16:22:21.128Z,4.10
2023-02-08T16:25:29.761Z,4.13
2023-02-08T16:28:33.566Z,6.53
2023-02-08T16:31:36.171Z,18.30
2023-02-08T16:34:38.709Z,6.73
2023-02-08T16:37:40.682Z,8.90
2023-02-08T16:40:51.374Z,9.10
2023-02-08T16:44:22.344Z,9.63
2023-02-08T16:47:27.824Z,5.20
2023-02-08T16:50:29.555Z,9.37
2023-02-08T16:53:41.442Z,7.17
2023-02-08T16:56:45.740Z,5.80
2023-02-08T16:59:47.439Z,11.60
2023-02-08T17:02:49.684Z,8.53
2023-02-08T17:05:52.572Z,6.93
2023-02-08T17:08:54.265Z,8.83
2023-02-08T17:11:55.960Z,9.23
2023-02-08T17:14:57.645Z,14.50
2023-02-08T17:17:59.372Z,12.73
2023-02-08T17:21:01.993Z,10.17
2023-02-08T17:24:04.023Z,8.97
2023-02-08T17:27:05.738Z,11.93
2023-02-08T17:30:18.595Z,11.23
2023-02-08T17:33:20.468Z,9.57
2023-02-08T17:36:22.227Z,11.47
2023-02-08T17:39:23.943Z,7.67
2023-02-08T17:42:25.699Z,10.20
2023-02-08T17:45:28.782Z,14.03
2023-02-08T17:48:30.545Z,8.53
2023-02-08T17:51:32.860Z,7.03
2023-02-08T17:54:36.837Z,9.77
2023-02-08T17:57:40.729Z,10.83
2023-02-08T18:00:42.477Z,12.67
2023-02-08T18:03:49.024Z,16.67
2023-02-08T18:06:50.725Z,11.73
2023-02-08T18:09:52.452Z,12.97
2023-02-08T18:12:54.373Z,10.97
2023-02-08T18:15:56.091Z,12.70
2023-02-08T18:18:59.299Z,12.50
2023-02-08T18:22:03.637Z,12.83
2023-02-08T18:25:05.857Z,15.37
2023-02-08T18:28:07.672Z,14.87
2023-02-08T18:31:14.327Z,17.23
2023-02-08T18:34:17.075Z,18.20
2023-02-08T18:37:18.789Z,14.73
2023-02-08T18:40:20.515Z,15.13
2023-02-08T18:43:22.317Z,25.60
2023-02-08T18:46:26.747Z,9.97
2023-02-08T18:49:28.761Z,14.07
2023-02-08T18:52:31.631Z,20.63
2023-02-08T18:55:33.562Z,22.03
2023-02-08T18:58:35.361Z,18.03
2023-02-08T19:01:38.227Z,15.43
2023-02-08T19:04:40.484Z,14.60
2023-02-08T19:07:42.208Z,31.43
2023-02-08T19:10:44.143Z,21.20
2023-02-08T19:13:46.760Z,18.13
2023-02-08T19:16:48.524Z,15.30
2023-02-08T19:19:50.235Z,16.00
2023-02-08T19:22:51.933Z,15.20
2023-02-08T19:25:53.674Z,21.80
2023-02-08T19:28:58.843Z,18.37
2023-02-08T19:32:01.085Z,21.63
2023-02-08T19:35:02.941Z,22.83
2023-02-08T19:38:05.168Z,20.13
2023-02-08T19:41:08.780Z,18.50
2023-02-08T19:44:13.735Z,25.00
2023-02-08T19:47:15.474Z,22.90
2023-02-08T19:50:17.280Z,19.67
2023-02-08T19:53:19.006Z,20.10
2023-02-08T19:56:20.720Z,17.90
2023-02-08T19:59:26.545Z,27.23
2023-02-08T20:02:28.403Z,25.57
2023-02-08T20:05:30.167Z,26.23
2023-02-08T20:08:31.991Z,27.00
2023-02-08T20:11:38.714Z,24.00
2023-02-08T20:14:44.351Z,22.00
2023-02-08T20:17:46.080Z,23.17
2023-02-08T20:20:59.995Z,21.07
2023-02-08T20:24:01.692Z,26.03
2023-02-08T20:27:03.870Z,26.80
2023-02-08T20:30:06.468Z,37.30
2023-02-08T20:33:08.208Z,25.70
2023-02-08T20:36:15.242Z,26.43
2023-02-08T20:39:19.516Z,29.40
2023-02-08T20:42:21.342Z,34.17
2023-02-08T20:45:23.262Z,37.57
2023-02-08T20:48:25.082Z,34.13
2023-02-08T20:51:28.344Z,28.63
2023-02-08T20:54:30.129Z,38.87
2023-02-08T20:57:31.878Z,38.07
2023-02-08T21:00:41.827Z,42.60
2023-02-08T21:03:44.996Z,37.33
2023-02-08T21:06:46.726Z,32.07
2023-02-08T21:09:48.509Z,32.27
2023-02-08T21:12:50.311Z,32.30
2023-02-08T21:15:51.995Z,32.43
2023-02-08T21:18:54.359Z,35.53
2023-02-08T21:21:58.720Z,30.27
2023-02-08T21:25:00.493Z,30.93
2023-02-08T21:28:02.439Z,34.03
2023-02-08T21:31:11.975Z,32.83
2023-02-08T21:34:13.849Z,30.33
2023-02-08T21:37:15.584Z,29.47
2023-02-08T21:40:17.469Z,29.33
2023-02-08T21:43:19.270Z,32.37
2023-02-08T21:46:21.832Z,23.53
2023-02-08T21:49:42.340Z,31.00
2023-02-08T21:53:03.045Z,25.50
2023-02-08T21:56:05.132Z,26.07
2023-02-08T21:59:06.857Z,29.73
2023-02-08T22:02:17.115Z,24.33
2023-02-08T22:05:21.132Z,29.40
2023-02-08T22:08:23.758Z,24.93
2023-02-08T22:11:25.539Z,20.00
2023-02-08T22:14:27.370Z,28.27
2023-02-08T22:17:29.058Z,34.10
2023-02-08T22:20:31.034Z,29.27
2023-02-08T22:23:32.798Z,33.53
2023-02-08T22:26:34.536Z,29.73
2023-02-08T22:29:36.358Z,33.40
2023-02-08T22:32:41.160Z,32.63
2023-02-08T22:35:42.946Z,27.70
2023-02-08T22:38:44.698Z,25.90
2023-02-08T22:41:46.468Z,31.63
2023-02-08T22:44:48.315Z,34.97
2023-02-08T22:47:50.050Z,29.23
2023-02-08T22:50:52.071Z,31.17
2023-02-08T22:53:55.644Z,31.43
2023-02-08T22:56:57.740Z,32.03
2023-02-08T22:59:59.823Z,30.83
2023-02-08T23:03:01.704Z,24.43
2023-02-08T23:06:06.889Z,21.87
2023-02-08T23:09:08.689Z,23.93
2023-02-08T23:12:10.444Z,24.07
2023-02-08T23:15:12.280Z,16.87
2023-02-08T23:18:14.081Z,15.80
2023-02-08T23:21:18.949Z,13.97
2023-02-08T23:24:20.714Z,16.43
2023-02-08T23:27:22.438Z,13.60
2023-02-08T23:30:24.213Z,14.97
2023-02-08T23:33:26.172Z,14.60
2023-02-08T23:36:28.077Z,17.30
2023-02-08T23:39:33.408Z,12.43
2023-02-08T23:42:35.145Z,16.17
2023-02-08T23:45:36.915Z,15.77
2023-02-08T23:48:39.486Z,11.70
2023-02-08T23:51:41.372Z,15.90
2023-02-08T23:54:43.432Z,14.80
2023-02-08T23:57:45.177Z,11.20
